createdAt,value
2022-07-29T00:06:20.140Z,19.21
2022-07-29T00:16:20.397Z,19.14
2022-07-29T00:26:20.613Z,19.08
2022-07-29T00:36:20.837Z,18.94
2022-07-29T00:46:21.109Z,18.80
2022-07-29T00:56:21.151Z,18.76
2022-07-29T01:06:21.373Z,18.84
2022-07-29T01:16:21.667Z,18.82
2022-07-29T01:26:21.757Z,18.58
2022-07-29T01:36:21.981Z,18.62
2022-07-29T01:46:22.323Z,18.54
2022-07-29T01:56:22.371Z,18.44
2022-07-29T02:06:22.627Z,18.27
2022-07-29T02:16:22.923Z,18.21
2022-07-29T02:26:23.000Z,18.33
2022-07-29T02:36:23.230Z,18.39
2022-07-29T02:46:28.436Z,18.39
2022-07-29T02:56:24.728Z,18.39
2022-07-29T03:06:28.391Z,18.23
2022-07-29T03:16:25.355Z,18.17
2022-07-29T03:26:24.458Z,18.15
2022-07-29T03:36:24.676Z,18.08
2022-07-29T03:46:24.975Z,17.97
2022-07-29T03:56:25.026Z,17.99
2022-07-29T04:06:25.373Z,17.99
2022-07-29T04:16:25.458Z,18.00
2022-07-29T04:26:25.492Z,18.21
2022-07-29T04:36:28.720Z,18.35
2022-07-29T04:46:25.952Z,18.51
2022-07-29T04:56:26.035Z,18.62
2022-07-29T05:06:26.135Z,18.62
2022-07-29T05:16:26.290Z,18.55
2022-07-29T05:26:26.318Z,18.63
2022-07-29T05:36:26.566Z,18.72
2022-07-29T05:46:26.867Z,18.81
2022-07-29T05:56:26.952Z,18.94
2022-07-29T06:06:27.029Z,18.92
2022-07-29T06:16:30.337Z,18.92
2022-07-29T06:26:30.627Z,18.50
2022-07-29T06:36:27.390Z,18.30
2022-07-29T06:46:27.647Z,18.15
2022-07-29T06:56:27.709Z,18.36
2022-07-29T07:06:27.958Z,18.60
2022-07-29T07:16:28.390Z,18.90
2022-07-29T07:26:28.324Z,19.54
2022-07-29T07:36:28.566Z,20.72
2022-07-29T07:46:28.827Z,20.82
2022-07-29T07:56:34.795Z,20.43
2022-07-29T08:06:30.093Z,20.08
2022-07-29T08:16:29.402Z,19.83
2022-07-29T08:26:29.471Z,19.25
2022-07-29T08:36:29.704Z,19.31
2022-07-29T08:46:29.972Z,19.22
2022-07-29T08:56:30.015Z,19.88
2022-07-29T09:06:30.398Z,19.78
2022-07-29T09:16:51.852Z,19.37
2022-07-29T09:26:31.326Z,19.81
2022-07-29T09:36:30.550Z,20.26
2022-07-29T09:46:30.831Z,21.10
2022-07-29T09:56:30.901Z,22.65
2022-07-29T10:06:30.948Z,22.58
2022-07-29T10:16:31.275Z,22.83
2022-07-29T10:26:31.414Z,23.66
2022-07-29T10:36:31.434Z,23.91
2022-07-29T10:46:31.724Z,25.15
2022-07-29T10:56:31.843Z,25.76
2022-07-29T11:06:32.005Z,25.58
2022-07-29T11:16:32.265Z,25.82
2022-07-29T11:26:32.544Z,26.02
2022-07-29T11:36:32.667Z,27.17
2022-07-29T11:46:32.703Z,26.92
2022-07-29T11:56:32.918Z,27.78
2022-07-29T12:06:33.196Z,27.75
2022-07-29T12:16:33.458Z,28.83
2022-07-29T12:26:34.034Z,28.52
2022-07-29T12:36:33.773Z,28.49
2022-07-29T12:46:34.111Z,26.62
2022-07-29T12:56:43.231Z,26.10
2022-07-29T13:06:35.405Z,25.67
2022-07-29T13:16:34.725Z,25.76
2022-07-29T13:26:34.771Z,25.21
2022-07-29T13:36:38.720Z,24.85
2022-07-29T13:46:36.074Z,24.71
2022-07-29T13:56:35.173Z,24.35
2022-07-29T14:06:35.389Z,24.08
2022-07-29T14:16:39.161Z,23.88
2022-07-29T14:26:36.800Z,23.46
2022-07-29T14:36:35.827Z,22.06
2022-07-29T14:46:36.048Z,20.91
2022-07-29T14:56:37.535Z,20.66
2022-07-29T15:06:36.398Z,20.57
2022-07-29T15:16:36.689Z,20.14
2022-07-29T15:26:36.886Z,19.98
2022-07-29T15:36:53.492Z,20.10
2022-07-29T15:46:38.369Z,20.03
2022-07-29T15:56:37.599Z,20.14
2022-07-29T16:06:37.827Z,19.87
2022-07-29T16:16:38.114Z,19.65
2022-07-29T16:26:38.143Z,19.65
2022-07-29T16:36:38.359Z,19.54
2022-07-29T16:46:39.048Z,19.73
2022-07-29T16:56:38.687Z,19.68
2022-07-29T17:06:38.916Z,19.51
2022-07-29T17:16:39.236Z,19.54
2022-07-29T17:26:39.279Z,19.37
2022-07-29T17:36:39.523Z,19.22
2022-07-29T17:46:39.869Z,19.14
2022-07-29T17:56:39.912Z,19.18
2022-07-29T18:06:40.174Z,19.04
2022-07-29T18:16:40.234Z,18.95
2022-07-29T18:26:40.481Z,19.02
2022-07-29T18:36:40.722Z,18.81
2022-07-29T18:46:41.167Z,18.72
2022-07-29T18:56:42.112Z,18.67
2022-07-29T19:06:41.155Z,18.62
2022-07-29T19:16:41.375Z,18.45
2022-07-29T19:26:41.600Z,18.41
2022-07-29T19:36:41.849Z,18.48
2022-07-29T19:46:42.137Z,18.42
2022-07-29T19:56:42.356Z,18.26
2022-07-29T20:06:42.397Z,18.12
2022-07-29T20:16:42.615Z,18.08
2022-07-29T20:26:42.831Z,18.15
2022-07-29T20:36:43.054Z,18.03
2022-07-29T20:46:43.334Z,18.15
2022-07-29T20:56:43.368Z,18.18
2022-07-29T21:06:43.594Z,18.05
2022-07-29T21:16:43.823Z,17.92
2022-07-29T21:26:47.446Z,17.86
2022-07-29T21:36:49.046Z,17.66
2022-07-29T21:46:44.373Z,17.41
2022-07-29T21:56:44.591Z,17.44
2022-07-29T22:06:45.851Z,17.34
2022-07-29T22:16:47.256Z,17.26
2022-07-29T22:26:45.289Z,17.25
2022-07-29T22:36:45.514Z,17.08
2022-07-29T22:46:45.736Z,16.97
2022-07-29T22:56:45.948Z,16.94
2022-07-29T23:06:46.172Z,16.89
2022-07-29T23:16:46.451Z,17.04
2022-07-29T23:26:46.517Z,16.97
2022-07-29T23:36:46.764Z,16.93
2022-07-29T23:46:47.063Z,16.83
2022-07-29T23:56:47.106Z,16.91
